WetterOnline ( https://www.wetteronline.de )

Wetter aktuell Berlingen

Aktuelles Wetter: Nürburg-Barweiler (488m)

6-stündlich | Neueste Meldungen
Ortszeit Temperatur Wetter
So, 29.11. 1:00 -1.6° C Nebel
Sa, 28.11. 19:00 3.2° C wolkenlos
Sa, 28.11. 13:00 9.4° C wolkenlos
Sa, 28.11. 7:00 1.6° C bedeckt
Sa, 28.11. 1:00 1.7° C wolkig
Fr, 27.11. 19:00 4.0° C wolkenlos
Fr, 27.11. 13:00 7.1° C wolkenlos
Fr, 27.11. 7:00 -0.4° C fast wolkenlos
Ortszeit Temperatur Wetter
So, 29.11. 3:30 -0.2° C Nebel
So, 29.11. 3:20 -0.2° C Nebel
So, 29.11. 3:10 -0.2° C Nebel
So, 29.11. 3:00 -0.1° C Nebel
So, 29.11. 2:50 -0.1° C Nebel
So, 29.11. 2:40 -0.1° C Nebel
So, 29.11. 2:30 -0.2° C Nebel
So, 29.11. 2:00 -0.3° C Nebel
So, 29.11. 1:30 -1.2° C Nebel
So, 29.11. 1:00 -1.6° C Nebel
So, 29.11. 0:30 -1.3° C Nebel
Ortszeit Relative Feuchte Sichtweite
So, 29.11. 1:00 98% <100 m
Sa, 28.11. 19:00 79% 45 km
Sa, 28.11. 13:00 54% >70 km
Sa, 28.11. 7:00 92% 25 km
Sa, 28.11. 1:00 91% 25 km
Fr, 27.11. 19:00 84% 29 km
Fr, 27.11. 13:00 76% 30 km
Fr, 27.11. 7:00 96% 1.4 km
Ortszeit Relative Feuchte Sichtweite
So, 29.11. 3:30 100% 100 m
So, 29.11. 3:20 100% -
So, 29.11. 3:10 100% -
So, 29.11. 3:00 99% 100 m
So, 29.11. 2:50 99% -
So, 29.11. 2:40 99% -
So, 29.11. 2:30 100% 100 m
So, 29.11. 2:00 100% 0.2 km
So, 29.11. 1:30 99% <100 m
So, 29.11. 1:00 98% <100 m
So, 29.11. 0:30 98% 0.3 km
Ortszeit Niederschlagsmenge Niederschlagsart
So, 29.11. 1:00 0.0 l/m2 in 6 Std. -
Sa, 28.11. 19:00 0.0 l/m2 in 12 Std. -
Sa, 28.11. 13:00 0.0 l/m2 in 6 Std. -
Sa, 28.11. 7:00 0.0 l/m2 in 12 Std. -
Sa, 28.11. 1:00 0.0 l/m2 in 6 Std. -
Fr, 27.11. 19:00 0.0 l/m2 in 12 Std. -
Fr, 27.11. 13:00 0.0 l/m2 in 6 Std. -
Fr, 27.11. 7:00 0.0 l/m2 in 12 Std. -
Ortszeit Niederschlagsmenge Niederschlagsart
So, 29.11. 3:30 0.0 l/m2 in 1 Std. -
So, 29.11. 3:20 keine Meldung -
So, 29.11. 3:10 keine Meldung -
So, 29.11. 3:00 0.0 l/m2 in 1 Std. -
So, 29.11. 2:50 keine Meldung -
So, 29.11. 2:40 keine Meldung -
So, 29.11. 2:30 0.0 l/m2 in 1 Std. -
So, 29.11. 2:00 0.0 l/m2 in 1 Std. -
So, 29.11. 1:30 0.0 l/m2 in 1 Std. -
So, 29.11. 1:00 0.0 l/m2 in 1 Std. -
So, 29.11. 0:30 0.0 l/m2 in 1 Std. -
Ortszeit Stärke Spitze Richtung
km/h Bft. km/h Grad Sektor
So, 29.11. 1:00 4 1 7 20° N
Sa, 28.11. 19:00 2 1 15 100° O
Sa, 28.11. 13:00 7 2 11 60° NO
Sa, 28.11. 7:00 0 0 11 - -
Sa, 28.11. 1:00 2 1 13 260° W
Fr, 27.11. 19:00 9 2 15 160° S
Fr, 27.11. 13:00 0 0 11 - -
Fr, 27.11. 7:00 2 1 11 160° S
Ortszeit Stärke Spitze Richtung
km/h Bft. km/h Grad Sektor
So, 29.11. 3:30 13 3 24 100° O
So, 29.11. 3:20 13 3 - 100° O
So, 29.11. 3:10 15 3 - 90° O
So, 29.11. 3:00 14 3 22 100° O
So, 29.11. 2:50 14 3 - 100° O
So, 29.11. 2:40 11 2 - 90° O
So, 29.11. 2:30 7 2 14 80° O
So, 29.11. 2:00 7 2 13 80° O
So, 29.11. 1:30 6 1 7 80° O
So, 29.11. 1:00 4 1 7 20° N
So, 29.11. 0:30 4 1 7 240° SW
Ortszeit Untergrenze Bedeckung Gattung
total tief tief mittel hoch
So, 29.11. 1:00 <30 m 8/8 0/8 - - -
Sa, 28.11. 19:00 9000 m 0/8 0/8 - - -
Sa, 28.11. 13:00 - 0/8 0/8 - - -
Sa, 28.11. 7:00 2100 m 8/8 8/8 - - -
Sa, 28.11. 1:00 2100 m 6/8 6/8 - - -
Fr, 27.11. 19:00 - 0/8 0/8 - - -
Fr, 27.11. 13:00 - 0/8 0/8 - - -
Fr, 27.11. 7:00 <30 m 0/8 0/8 - - -
Ortszeit Bedeckungsgrad in Achtel und Wolkenuntergrenze
So, 29.11. 3:30 8(<30m)
So, 29.11. 3:20 8(<30m)
So, 29.11. 3:10 8(<30m)
So, 29.11. 3:00 8(<30m)
So, 29.11. 2:50 8(<30m)
So, 29.11. 2:40 8(<30m)
So, 29.11. 2:30 8(<30m)
So, 29.11. 2:00 8(<30m)
So, 29.11. 1:30 8(<30m)
So, 29.11. 1:00 8(<30m)
So, 29.11. 0:30 8(<30m)
Ortszeit Luftdruck NN (hPa) Tendenz (hPa in 3 Std.)
So, 29.11. 1:00 1024 + 0,3
Sa, 28.11. 19:00 1021 + 0,6
Sa, 28.11. 13:00 1019 - 0,1
Sa, 28.11. 7:00 1020 + 0,1
Sa, 28.11. 1:00 1021 + 0,1
Fr, 27.11. 19:00 1020 + 0,1
Fr, 27.11. 13:00 1019 - 0,5
Fr, 27.11. 7:00 1021 - 0,4
Ortszeit Luftdruck NN (hPa) Tendenz (hPa in 3 Std.)
So, 29.11. 3:30 1024 + 0,4
So, 29.11. 3:20 1024 keine Meldung
So, 29.11. 3:10 1024 keine Meldung
So, 29.11. 3:00 1024 + 0,4
So, 29.11. 2:50 1024 keine Meldung
So, 29.11. 2:40 1024 keine Meldung
So, 29.11. 2:30 1024 + 0,2
So, 29.11. 2:00 1024 + 0,1
So, 29.11. 1:30 1024 + 0,1
So, 29.11. 1:00 1024 + 0,3
So, 29.11. 0:30 1024 + 0,7
Ortszeit Schneehöhe (cm)
So, 29.11. 1:00 0
Sa, 28.11. 19:00 0
Sa, 28.11. 13:00 0
Sa, 28.11. 7:00 0
Sa, 28.11. 1:00 0
Fr, 27.11. 19:00 0
Fr, 27.11. 13:00 0
Fr, 27.11. 7:00 0
Ortszeit Schneehöhe (cm)
So, 29.11. 3:30 0
So, 29.11. 3:20 0
So, 29.11. 3:10 0
So, 29.11. 3:00 0
So, 29.11. 2:50 0
So, 29.11. 2:40 0
So, 29.11. 2:30 0
So, 29.11. 2:00 0
So, 29.11. 1:30 0
So, 29.11. 1:00 0
So, 29.11. 0:30 0
Link zu dieser Seite / Seite empfehlen

Das Wetter in ...